sensor_id;sensor_type;location;lat;lon;timestamp;temperature;humidity
45837;DHT22;31548;51.420;-0.040;2023-01-30T00:01:05;6.80;99.90
45837;DHT22;31548;51.420;-0.040;2023-01-30T00:03:33;6.80;99.90
45837;DHT22;31548;51.420;-0.040;2023-01-30T00:06:00;6.90;99.90
45837;DHT22;31548;51.420;-0.040;2023-01-30T00:08:27;6.90;99.90
45837;DHT22;31548;51.420;-0.040;2023-01-30T00:10:54;6.90;99.90
45837;DHT22;31548;51.420;-0.040;2023-01-30T00:13:22;7.00;99.90
45837;DHT22;31548;51.420;-0.040;2023-01-30T00:15:49;7.00;99.90
45837;DHT22;31548;51.420;-0.040;2023-01-30T00:18:16;7.00;99.90
45837;DHT22;31548;51.420;-0.040;2023-01-30T00:20:43;7.00;99.90
45837;DHT22;31548;51.420;-0.040;2023-01-30T00:23:11;7.00;99.90
45837;DHT22;31548;51.420;-0.040;2023-01-30T00:25:38;7.00;99.90
45837;DHT22;31548;51.420;-0.040;2023-01-30T00:28:05;6.90;99.90
45837;DHT22;31548;51.420;-0.040;2023-01-30T00:30:33;7.00;99.90
45837;DHT22;31548;51.420;-0.040;2023-01-30T00:33:00;7.00;99.90
45837;DHT22;31548;51.420;-0.040;2023-01-30T00:35:27;6.90;99.90
45837;DHT22;31548;51.420;-0.040;2023-01-30T00:37:56;6.90;99.90
45837;DHT22;31548;51.420;-0.040;2023-01-30T00:40:25;7.00;99.90
45837;DHT22;31548;51.420;-0.040;2023-01-30T00:42:53;7.00;99.90
45837;DHT22;31548;51.420;-0.040;2023-01-30T00:45:41;7.00;99.90
45837;DHT22;31548;51.420;-0.040;2023-01-30T00:48:29;7.00;99.90
45837;DHT22;31548;51.420;-0.040;2023-01-30T00:50:57;7.00;99.90
45837;DHT22;31548;51.420;-0.040;2023-01-30T00:53:24;7.10;99.90
45837;DHT22;31548;51.420;-0.040;2023-01-30T00:55:53;7.10;99.90
45837;DHT22;31548;51.420;-0.040;2023-01-30T00:58:21;7.10;99.90
45837;DHT22;31548;51.420;-0.040;2023-01-30T01:00:49;7.10;99.90
45837;DHT22;31548;51.420;-0.040;2023-01-30T01:03:18;7.10;99.90
45837;DHT22;31548;51.420;-0.040;2023-01-30T01:05:46;7.20;99.90
45837;DHT22;31548;51.420;-0.040;2023-01-30T01:08:14;7.20;99.90
45837;DHT22;31548;51.420;-0.040;2023-01-30T01:10:41;7.20;99.90
45837;DHT22;31548;51.420;-0.040;2023-01-30T01:13:08;7.20;99.90
45837;DHT22;31548;51.420;-0.040;2023-01-30T01:15:37;7.20;99.90
45837;DHT22;31548;51.420;-0.040;2023-01-30T01:18:04;7.20;99.90
45837;DHT22;31548;51.420;-0.040;2023-01-30T01:20:32;7.20;99.90
45837;DHT22;31548;51.420;-0.040;2023-01-30T01:22:59;7.20;99.90
45837;DHT22;31548;51.420;-0.040;2023-01-30T01:25:27;7.20;99.90
45837;DHT22;31548;51.420;-0.040;2023-01-30T01:27:54;7.20;99.90
45837;DHT22;31548;51.420;-0.040;2023-01-30T01:30:22;7.20;99.90
45837;DHT22;31548;51.420;-0.040;2023-01-30T01:32:49;7.20;99.90
45837;DHT22;31548;51.420;-0.040;2023-01-30T01:35:16;7.20;99.90
45837;DHT22;31548;51.420;-0.040;2023-01-30T01:37:46;7.30;99.90
45837;DHT22;31548;51.420;-0.040;2023-01-30T01:40:21;7.30;99.90
45837;DHT22;31548;51.420;-0.040;2023-01-30T01:43:18;7.30;99.90
45837;DHT22;31548;51.420;-0.040;2023-01-30T01:45:47;7.40;99.90
45837;DHT22;31548;51.420;-0.040;2023-01-30T01:48:30;7.40;99.90
45837;DHT22;31548;51.420;-0.040;2023-01-30T01:51:03;7.40;99.90
45837;DHT22;31548;51.420;-0.040;2023-01-30T01:53:35;7.40;99.90
45837;DHT22;31548;51.420;-0.040;2023-01-30T01:56:04;7.40;99.90
45837;DHT22;31548;51.420;-0.040;2023-01-30T01:58:48;7.50;99.90
45837;DHT22;31548;51.420;-0.040;2023-01-30T02:01:17;7.40;99.90
45837;DHT22;31548;51.420;-0.040;2023-01-30T02:03:49;7.40;99.90
45837;DHT22;31548;51.420;-0.040;2023-01-30T02:06:19;7.40;99.90
45837;DHT22;31548;51.420;-0.040;2023-01-30T02:08:50;7.40;99.90
45837;DHT22;31548;51.420;-0.040;2023-01-30T02:11:28;7.40;99.90
45837;DHT22;31548;51.420;-0.040;2023-01-30T02:13:56;7.50;99.90
45837;DHT22;31548;51.420;-0.040;2023-01-30T02:16:25;7.50;99.90
45837;DHT22;31548;51.420;-0.040;2023-01-30T02:18:52;7.40;99.90
45837;DHT22;31548;51.420;-0.040;2023-01-30T02:21:32;7.40;99.90
45837;DHT22;31548;51.420;-0.040;2023-01-30T02:33:30;7.40;99.90
45837;DHT22;31548;51.420;-0.040;2023-01-30T02:36:19;7.40;99.90
45837;DHT22;31548;51.420;-0.040;2023-01-30T02:39:15;7.40;99.90
45837;DHT22;31548;51.420;-0.040;2023-01-30T02:45:21;7.40;99.90
45837;DHT22;31548;51.420;-0.040;2023-01-30T02:47:59;7.50;99.90
45837;DHT22;31548;51.420;-0.040;2023-01-30T02:50:33;7.50;99.90
45837;DHT22;31548;51.420;-0.040;2023-01-30T02:53:04;7.40;99.90
45837;DHT22;31548;51.420;-0.040;2023-01-30T02:55:32;7.50;99.90
45837;DHT22;31548;51.420;-0.040;2023-01-30T02:58:01;7.60;99.90
45837;DHT22;31548;51.420;-0.040;2023-01-30T03:06:39;7.70;99.90
45837;DHT22;31548;51.420;-0.040;2023-01-30T03:15:09;7.80;99.90
45837;DHT22;31548;51.420;-0.040;2023-01-30T03:17:41;7.90;99.90
45837;DHT22;31548;51.420;-0.040;2023-01-30T03:20:13;7.80;99.90
45837;DHT22;31548;51.420;-0.040;2023-01-30T03:22:41;7.80;99.90
45837;DHT22;31548;51.420;-0.040;2023-01-30T03:25:12;7.80;99.90
45837;DHT22;31548;51.420;-0.040;2023-01-30T03:27:43;7.80;99.90
45837;DHT22;31548;51.420;-0.040;2023-01-30T03:30:11;7.80;99.90
45837;DHT22;31548;51.420;-0.040;2023-01-30T03:32:40;7.80;99.90
45837;DHT22;31548;51.420;-0.040;2023-01-30T03:35:07;7.80;99.90
45837;DHT22;31548;51.420;-0.040;2023-01-30T03:37:35;7.70;99.90
45837;DHT22;31548;51.420;-0.040;2023-01-30T03:40:03;7.80;99.90
45837;DHT22;31548;51.420;-0.040;2023-01-30T03:42:30;7.70;99.90
45837;DHT22;31548;51.420;-0.040;2023-01-30T03:44:58;7.70;99.90
45837;DHT22;31548;51.420;-0.040;2023-01-30T03:47:25;7.70;99.90
45837;DHT22;31548;51.420;-0.040;2023-01-30T03:49:54;7.70;99.90
45837;DHT22;31548;51.420;-0.040;2023-01-30T03:52:21;7.80;99.90
45837;DHT22;31548;51.420;-0.040;2023-01-30T03:54:48;7.70;99.90
45837;DHT22;31548;51.420;-0.040;2023-01-30T03:57:16;7.70;99.90
45837;DHT22;31548;51.420;-0.040;2023-01-30T03:59:43;7.70;99.90
45837;DHT22;31548;51.420;-0.040;2023-01-30T04:02:13;7.70;99.90
45837;DHT22;31548;51.420;-0.040;2023-01-30T04:04:43;7.80;99.90
45837;DHT22;31548;51.420;-0.040;2023-01-30T04:07:10;7.70;99.90
45837;DHT22;31548;51.420;-0.040;2023-01-30T04:09:39;7.80;99.90
45837;DHT22;31548;51.420;-0.040;2023-01-30T04:12:06;7.80;99.90
45837;DHT22;31548;51.420;-0.040;2023-01-30T04:14:39;7.70;99.90
45837;DHT22;31548;51.420;-0.040;2023-01-30T04:17:20;7.70;99.90
45837;DHT22;31548;51.420;-0.040;2023-01-30T04:20:13;7.80;99.90
45837;DHT22;31548;51.420;-0.040;2023-01-30T04:22:46;7.80;99.90
45837;DHT22;31548;51.420;-0.040;2023-01-30T04:25:15;7.80;99.90
45837;DHT22;31548;51.420;-0.040;2023-01-30T04:27:43;7.80;99.90
45837;DHT22;31548;51.420;-0.040;2023-01-30T04:30:15;7.80;99.90
45837;DHT22;31548;51.420;-0.040;2023-01-30T04:32:43;7.80;99.90
45837;DHT22;31548;51.420;-0.040;2023-01-30T04:35:10;7.80;99.90
45837;DHT22;31548;51.420;-0.040;2023-01-30T04:37:38;7.70;99.90
45837;DHT22;31548;51.420;-0.040;2023-01-30T04:40:07;7.70;99.90
45837;DHT22;31548;51.420;-0.040;2023-01-30T04:42:35;7.70;99.90
45837;DHT22;31548;51.420;-0.040;2023-01-30T04:45:21;7.70;99.90
45837;DHT22;31548;51.420;-0.040;2023-01-30T04:47:49;7.80;99.90
45837;DHT22;31548;51.420;-0.040;2023-01-30T04:50:17;7.80;99.90
45837;DHT22;31548;51.420;-0.040;2023-01-30T04:52:44;7.80;99.90
45837;DHT22;31548;51.420;-0.040;2023-01-30T04:55:11;7.80;99.90
45837;DHT22;31548;51.420;-0.040;2023-01-30T04:57:39;7.80;99.90
45837;DHT22;31548;51.420;-0.040;2023-01-30T05:00:07;7.80;99.90
45837;DHT22;31548;51.420;-0.040;2023-01-30T05:02:38;7.80;99.90
45837;DHT22;31548;51.420;-0.040;2023-01-30T05:05:05;7.70;99.90
45837;DHT22;31548;51.420;-0.040;2023-01-30T05:07:32;7.70;99.90
45837;DHT22;31548;51.420;-0.040;2023-01-30T05:09:59;7.70;99.90
45837;DHT22;31548;51.420;-0.040;2023-01-30T05:12:28;7.70;99.90
45837;DHT22;31548;51.420;-0.040;2023-01-30T05:14:56;7.70;99.90
45837;DHT22;31548;51.420;-0.040;2023-01-30T05:17:24;7.70;99.90
45837;DHT22;31548;51.420;-0.040;2023-01-30T05:19:51;7.70;99.90
45837;DHT22;31548;51.420;-0.040;2023-01-30T05:22:18;7.70;99.90
45837;DHT22;31548;51.420;-0.040;2023-01-30T05:24:45;7.60;99.90
45837;DHT22;31548;51.420;-0.040;2023-01-30T05:27:13;7.70;99.90
45837;DHT22;31548;51.420;-0.040;2023-01-30T05:29:40;7.70;99.90
45837;DHT22;31548;51.420;-0.040;2023-01-30T05:32:12;7.70;99.90
45837;DHT22;31548;51.420;-0.040;2023-01-30T05:34:40;7.70;99.90
45837;DHT22;31548;51.420;-0.040;2023-01-30T05:37:08;7.60;99.90
45837;DHT22;31548;51.420;-0.040;2023-01-30T05:39:35;7.70;99.90
45837;DHT22;31548;51.420;-0.040;2023-01-30T05:42:03;7.70;99.90
45837;DHT22;31548;51.420;-0.040;2023-01-30T05:44:30;7.60;99.90
45837;DHT22;31548;51.420;-0.040;2023-01-30T05:46:57;7.60;99.90
45837;DHT22;31548;51.420;-0.040;2023-01-30T05:49:25;7.60;99.90
45837;DHT22;31548;51.420;-0.040;2023-01-30T05:51:52;7.70;99.90
45837;DHT22;31548;51.420;-0.040;2023-01-30T05:54:19;7.70;99.90
45837;DHT22;31548;51.420;-0.040;2023-01-30T05:56:50;7.70;99.90
45837;DHT22;31548;51.420;-0.040;2023-01-30T05:59:17;7.70;99.90
45837;DHT22;31548;51.420;-0.040;2023-01-30T06:01:44;7.70;99.90
45837;DHT22;31548;51.420;-0.040;2023-01-30T06:04:11;7.70;99.90
45837;DHT22;31548;51.420;-0.040;2023-01-30T06:06:39;7.70;99.90
45837;DHT22;31548;51.420;-0.040;2023-01-30T06:09:06;7.80;99.90
45837;DHT22;31548;51.420;-0.040;2023-01-30T06:11:33;7.80;99.90
45837;DHT22;31548;51.420;-0.040;2023-01-30T06:14:00;7.80;99.90
45837;DHT22;31548;51.420;-0.040;2023-01-30T06:16:28;7.80;99.90
45837;DHT22;31548;51.420;-0.040;2023-01-30T06:18:55;7.90;99.90
45837;DHT22;31548;51.420;-0.040;2023-01-30T06:21:22;7.90;99.90
45837;DHT22;31548;51.420;-0.040;2023-01-30T06:23:49;8.00;99.90
45837;DHT22;31548;51.420;-0.040;2023-01-30T06:26:17;8.00;99.90
45837;DHT22;31548;51.420;-0.040;2023-01-30T06:28:44;7.90;99.90
45837;DHT22;31548;51.420;-0.040;2023-01-30T06:31:11;8.10;99.90
45837;DHT22;31548;51.420;-0.040;2023-01-30T06:33:38;8.00;99.90
45837;DHT22;31548;51.420;-0.040;2023-01-30T06:36:06;8.10;99.90
45837;DHT22;31548;51.420;-0.040;2023-01-30T06:38:33;8.10;99.90
45837;DHT22;31548;51.420;-0.040;2023-01-30T06:41:01;8.10;99.90
45837;DHT22;31548;51.420;-0.040;2023-01-30T06:43:28;8.10;99.90
45837;DHT22;31548;51.420;-0.040;2023-01-30T06:45:57;8.10;99.90
45837;DHT22;31548;51.420;-0.040;2023-01-30T06:48:25;8.00;99.90
45837;DHT22;31548;51.420;-0.040;2023-01-30T06:50:53;8.00;99.90
45837;DHT22;31548;51.420;-0.040;2023-01-30T06:53:20;8.00;99.90
45837;DHT22;31548;51.420;-0.040;2023-01-30T06:55:48;7.90;99.90
45837;DHT22;31548;51.420;-0.040;2023-01-30T06:58:15;7.90;99.90
45837;DHT22;31548;51.420;-0.040;2023-01-30T07:00:42;7.90;99.90
45837;DHT22;31548;51.420;-0.040;2023-01-30T07:03:15;7.80;99.90
45837;DHT22;31548;51.420;-0.040;2023-01-30T07:05:44;7.80;99.90
45837;DHT22;31548;51.420;-0.040;2023-01-30T07:08:12;7.90;99.90
45837;DHT22;31548;51.420;-0.040;2023-01-30T07:10:40;7.80;99.90
45837;DHT22;31548;51.420;-0.040;2023-01-30T07:13:08;7.80;99.90
45837;DHT22;31548;51.420;-0.040;2023-01-30T07:15:35;7.80;99.90
45837;DHT22;31548;51.420;-0.040;2023-01-30T07:18:03;7.80;99.90
45837;DHT22;31548;51.420;-0.040;2023-01-30T07:20:30;7.80;99.90
45837;DHT22;31548;51.420;-0.040;2023-01-30T07:22:57;7.70;99.90
45837;DHT22;31548;51.420;-0.040;2023-01-30T07:25:26;7.60;99.90
45837;DHT22;31548;51.420;-0.040;2023-01-30T07:27:58;7.60;99.90
45837;DHT22;31548;51.420;-0.040;2023-01-30T07:30:28;7.60;99.90
45837;DHT22;31548;51.420;-0.040;2023-01-30T07:32:57;7.50;99.90
45837;DHT22;31548;51.420;-0.040;2023-01-30T07:35:26;7.50;99.90
45837;DHT22;31548;51.420;-0.040;2023-01-30T07:37:54;7.40;99.90
45837;DHT22;31548;51.420;-0.040;2023-01-30T07:40:22;7.30;99.90
45837;DHT22;31548;51.420;-0.040;2023-01-30T07:43:07;7.30;99.90
45837;DHT22;31548;51.420;-0.040;2023-01-30T07:45:41;7.20;99.90
45837;DHT22;31548;51.420;-0.040;2023-01-30T07:48:10;7.20;99.90
45837;DHT22;31548;51.420;-0.040;2023-01-30T07:50:39;7.10;99.90
45837;DHT22;31548;51.420;-0.040;2023-01-30T07:53:08;7.10;99.90
45837;DHT22;31548;51.420;-0.040;2023-01-30T07:55:36;7.00;99.90
45837;DHT22;31548;51.420;-0.040;2023-01-30T07:58:04;7.00;99.90
45837;DHT22;31548;51.420;-0.040;2023-01-30T08:00:31;7.00;99.90
45837;DHT22;31548;51.420;-0.040;2023-01-30T08:02:58;7.00;99.90
45837;DHT22;31548;51.420;-0.040;2023-01-30T08:05:26;7.00;99.90
45837;DHT22;31548;51.420;-0.040;2023-01-30T08:07:56;7.10;99.90
45837;DHT22;31548;51.420;-0.040;2023-01-30T08:10:24;7.10;99.90
45837;DHT22;31548;51.420;-0.040;2023-01-30T08:12:51;7.10;99.90
45837;DHT22;31548;51.420;-0.040;2023-01-30T08:15:18;7.20;99.90
45837;DHT22;31548;51.420;-0.040;2023-01-30T08:17:57;7.10;99.90
45837;DHT22;31548;51.420;-0.040;2023-01-30T08:20:25;7.10;99.90
45837;DHT22;31548;51.420;-0.040;2023-01-30T08:22:53;7.10;99.90
45837;DHT22;31548;51.420;-0.040;2023-01-30T08:25:21;7.10;99.90
45837;DHT22;31548;51.420;-0.040;2023-01-30T08:27:49;7.10;99.90
45837;DHT22;31548;51.420;-0.040;2023-01-30T08:30:17;7.20;99.90
45837;DHT22;31548;51.420;-0.040;2023-01-30T08:32:45;7.20;99.90
45837;DHT22;31548;51.420;-0.040;2023-01-30T08:35:13;7.10;99.90
45837;DHT22;31548;51.420;-0.040;2023-01-30T08:37:41;7.20;99.90
45837;DHT22;31548;51.420;-0.040;2023-01-30T08:40:09;7.10;99.90
45837;DHT22;31548;51.420;-0.040;2023-01-30T08:42:37;7.10;99.90
45837;DHT22;31548;51.420;-0.040;2023-01-30T08:45:04;7.20;99.90
45837;DHT22;31548;51.420;-0.040;2023-01-30T08:47:32;7.20;99.90
45837;DHT22;31548;51.420;-0.040;2023-01-30T08:50:02;7.20;99.90
45837;DHT22;31548;51.420;-0.040;2023-01-30T08:52:31;7.20;99.90
45837;DHT22;31548;51.420;-0.040;2023-01-30T08:54:58;7.20;99.90
45837;DHT22;31548;51.420;-0.040;2023-01-30T08:57:26;7.20;99.90
45837;DHT22;31548;51.420;-0.040;2023-01-30T08:59:54;7.20;99.90
45837;DHT22;31548;51.420;-0.040;2023-01-30T09:02:21;7.20;99.90
45837;DHT22;31548;51.420;-0.040;2023-01-30T09:04:49;7.20;99.90
45837;DHT22;31548;51.420;-0.040;2023-01-30T09:07:16;7.20;99.90
45837;DHT22;31548;51.420;-0.040;2023-01-30T09:09:43;7.20;99.90
45837;DHT22;31548;51.420;-0.040;2023-01-30T09:12:10;7.20;99.90
45837;DHT22;31548;51.420;-0.040;2023-01-30T09:14:37;7.30;99.90
45837;DHT22;31548;51.420;-0.040;2023-01-30T09:17:05;7.30;99.90
45837;DHT22;31548;51.420;-0.040;2023-01-30T09:19:32;7.30;99.90
45837;DHT22;31548;51.420;-0.040;2023-01-30T09:22:02;7.30;99.90
45837;DHT22;31548;51.420;-0.040;2023-01-30T09:24:29;7.30;99.90
45837;DHT22;31548;51.420;-0.040;2023-01-30T09:26:57;7.30;99.90
45837;DHT22;31548;51.420;-0.040;2023-01-30T09:29:25;7.30;99.90
45837;DHT22;31548;51.420;-0.040;2023-01-30T09:31:54;7.30;99.90
45837;DHT22;31548;51.420;-0.040;2023-01-30T09:34:25;7.30;99.90
45837;DHT22;31548;51.420;-0.040;2023-01-30T09:36:57;7.30;99.90
45837;DHT22;31548;51.420;-0.040;2023-01-30T09:39:30;7.40;99.90
45837;DHT22;31548;51.420;-0.040;2023-01-30T09:47:11;7.40;99.90
45837;DHT22;31548;51.420;-0.040;2023-01-30T09:50:12;7.40;99.90
45837;DHT22;31548;51.420;-0.040;2023-01-30T09:55:23;7.40;99.90
45837;DHT22;31548;51.420;-0.040;2023-01-30T09:57:51;7.40;99.90
45837;DHT22;31548;51.420;-0.040;2023-01-30T10:00:28;7.40;99.90
45837;DHT22;31548;51.420;-0.040;2023-01-30T10:03:12;7.50;99.90
45837;DHT22;31548;51.420;-0.040;2023-01-30T10:28:02;7.50;99.90
45837;DHT22;31548;51.420;-0.040;2023-01-30T10:30:32;7.60;99.90
45837;DHT22;31548;51.420;-0.040;2023-01-30T10:33:05;7.50;99.90
45837;DHT22;31548;51.420;-0.040;2023-01-30T10:35:35;7.60;99.90
45837;DHT22;31548;51.420;-0.040;2023-01-30T10:38:25;7.60;99.90
45837;DHT22;31548;51.420;-0.040;2023-01-30T10:41:00;7.60;99.90
45837;DHT22;31548;51.420;-0.040;2023-01-30T10:43:45;7.60;99.90
45837;DHT22;31548;51.420;-0.040;2023-01-30T10:49:05;7.70;99.90
45837;DHT22;31548;51.420;-0.040;2023-01-30T10:54:24;7.80;99.90
45837;DHT22;31548;51.420;-0.040;2023-01-30T10:59:58;7.90;99.90
45837;DHT22;31548;51.420;-0.040;2023-01-30T11:05:43;8.00;99.90
45837;DHT22;31548;51.420;-0.040;2023-01-30T11:08:20;8.00;99.90
45837;DHT22;31548;51.420;-0.040;2023-01-30T11:10:49;8.10;99.90
45837;DHT22;31548;51.420;-0.040;2023-01-30T11:13:19;8.20;99.90
45837;DHT22;31548;51.420;-0.040;2023-01-30T11:15:52;8.20;99.90
45837;DHT22;31548;51.420;-0.040;2023-01-30T11:18:21;8.20;99.90
45837;DHT22;31548;51.420;-0.040;2023-01-30T11:21:17;8.20;99.90
45837;DHT22;31548;51.420;-0.040;2023-01-30T11:23:45;8.20;99.90
45837;DHT22;31548;51.420;-0.040;2023-01-30T11:26:20;8.20;99.90
45837;DHT22;31548;51.420;-0.040;2023-01-30T11:28:48;8.20;99.90
45837;DHT22;31548;51.420;-0.040;2023-01-30T11:31:35;8.30;99.90
45837;DHT22;31548;51.420;-0.040;2023-01-30T11:34:14;8.30;99.90
45837;DHT22;31548;51.420;-0.040;2023-01-30T11:36:42;8.40;99.90
45837;DHT22;31548;51.420;-0.040;2023-01-30T11:41:58;8.50;99.90
45837;DHT22;31548;51.420;-0.040;2023-01-30T11:44:34;8.50;99.90
45837;DHT22;31548;51.420;-0.040;2023-01-30T11:47:15;8.50;99.90
45837;DHT22;31548;51.420;-0.040;2023-01-30T11:49:47;8.60;99.90
45837;DHT22;31548;51.420;-0.040;2023-01-30T11:52:40;8.60;99.90
45837;DHT22;31548;51.420;-0.040;2023-01-30T11:55:19;8.60;99.90
45837;DHT22;31548;51.420;-0.040;2023-01-30T11:57:52;8.60;99.90
45837;DHT22;31548;51.420;-0.040;2023-01-30T12:00:23;8.60;99.90
45837;DHT22;31548;51.420;-0.040;2023-01-30T12:02:53;8.70;99.90
45837;DHT22;31548;51.420;-0.040;2023-01-30T12:05:35;8.60;99.90
45837;DHT22;31548;51.420;-0.040;2023-01-30T12:11:01;8.70;99.90
45837;DHT22;31548;51.420;-0.040;2023-01-30T12:13:37;8.70;99.90
45837;DHT22;31548;51.420;-0.040;2023-01-30T12:16:20;8.70;99.90
45837;DHT22;31548;51.420;-0.040;2023-01-30T12:19:11;8.70;99.90
45837;DHT22;31548;51.420;-0.040;2023-01-30T12:21:48;8.80;99.90
45837;DHT22;31548;51.420;-0.040;2023-01-30T12:24:42;8.70;99.90
45837;DHT22;31548;51.420;-0.040;2023-01-30T12:30:28;8.70;99.90
45837;DHT22;31548;51.420;-0.040;2023-01-30T12:33:01;8.60;99.90
45837;DHT22;31548;51.420;-0.040;2023-01-30T12:38:26;8.70;99.90
45837;DHT22;31548;51.420;-0.040;2023-01-30T12:41:11;8.70;99.90
45837;DHT22;31548;51.420;-0.040;2023-01-30T12:58:48;8.80;99.90
45837;DHT22;31548;51.420;-0.040;2023-01-30T13:04:19;8.80;99.90
45837;DHT22;31548;51.420;-0.040;2023-01-30T13:22:55;9.10;99.90
45837;DHT22;31548;51.420;-0.040;2023-01-30T13:26:42;9.20;99.90
45837;DHT22;31548;51.420;-0.040;2023-01-30T13:28:56;9.30;99.90
45837;DHT22;31548;51.420;-0.040;2023-01-30T13:31:27;9.40;99.90
45837;DHT22;31548;51.420;-0.040;2023-01-30T13:34:16;9.50;99.90
45837;DHT22;31548;51.420;-0.040;2023-01-30T13:36:54;9.50;99.90
45837;DHT22;31548;51.420;-0.040;2023-01-30T13:39:36;9.50;99.90
45837;DHT22;31548;51.420;-0.040;2023-01-30T13:42:20;9.50;99.90
45837;DHT22;31548;51.420;-0.040;2023-01-30T13:44:50;9.60;99.90
45837;DHT22;31548;51.420;-0.040;2023-01-30T13:55:48;9.70;99.90
45837;DHT22;31548;51.420;-0.040;2023-01-30T14:01:00;9.60;99.90
45837;DHT22;31548;51.420;-0.040;2023-01-30T14:03:32;9.60;99.90
45837;DHT22;31548;51.420;-0.040;2023-01-30T14:06:03;9.50;99.90
45837;DHT22;31548;51.420;-0.040;2023-01-30T14:16:43;9.40;99.90
45837;DHT22;31548;51.420;-0.040;2023-01-30T14:51:42;10.30;99.90
45837;DHT22;31548;51.420;-0.040;2023-01-30T14:56:51;10.10;99.90
45837;DHT22;31548;51.420;-0.040;2023-01-30T15:04:25;9.70;99.90
45837;DHT22;31548;51.420;-0.040;2023-01-30T15:06:53;9.70;99.90
45837;DHT22;31548;51.420;-0.040;2023-01-30T15:09:24;9.70;99.90
45837;DHT22;31548;51.420;-0.040;2023-01-30T15:21:14;9.60;99.90
45837;DHT22;31548;51.420;-0.040;2023-01-30T15:23:50;9.40;99.90
45837;DHT22;31548;51.420;-0.040;2023-01-30T15:29:31;9.50;99.90
45837;DHT22;31548;51.420;-0.040;2023-01-30T15:32:20;9.40;99.90
45837;DHT22;31548;51.420;-0.040;2023-01-30T15:34:50;9.30;99.90
45837;DHT22;31548;51.420;-0.040;2023-01-30T15:37:38;9.30;99.90
45837;DHT22;31548;51.420;-0.040;2023-01-30T15:42:45;9.20;99.90
45837;DHT22;31548;51.420;-0.040;2023-01-30T15:45:31;9.20;99.90
45837;DHT22;31548;51.420;-0.040;2023-01-30T15:50:36;9.30;99.90
45837;DHT22;31548;51.420;-0.040;2023-01-30T15:53:04;9.30;99.90
45837;DHT22;31548;51.420;-0.040;2023-01-30T15:55:41;9.30;99.90
45837;DHT22;31548;51.420;-0.040;2023-01-30T15:58:15;9.30;99.90
45837;DHT22;31548;51.420;-0.040;2023-01-30T16:00:48;9.30;99.90
45837;DHT22;31548;51.420;-0.040;2023-01-30T16:03:22;9.20;99.90
45837;DHT22;31548;51.420;-0.040;2023-01-30T16:05:52;9.20;99.90
45837;DHT22;31548;51.420;-0.040;2023-01-30T16:08:26;9.20;99.90
45837;DHT22;31548;51.420;-0.040;2023-01-30T16:10:54;9.10;99.90
45837;DHT22;31548;51.420;-0.040;2023-01-30T16:13:22;9.10;99.90
45837;DHT22;31548;51.420;-0.040;2023-01-30T16:15:59;9.10;99.90
45837;DHT22;31548;51.420;-0.040;2023-01-30T16:18:50;9.00;99.90
45837;DHT22;31548;51.420;-0.040;2023-01-30T16:21:24;9.00;99.90
45837;DHT22;31548;51.420;-0.040;2023-01-30T16:24:07;8.90;99.90
45837;DHT22;31548;51.420;-0.040;2023-01-30T16:26:42;8.90;99.90
45837;DHT22;31548;51.420;-0.040;2023-01-30T16:29:16;8.80;99.90
45837;DHT22;31548;51.420;-0.040;2023-01-30T16:31:46;8.70;99.90
45837;DHT22;31548;51.420;-0.040;2023-01-30T16:34:26;8.70;99.90
45837;DHT22;31548;51.420;-0.040;2023-01-30T16:36:54;8.70;99.90
45837;DHT22;31548;51.420;-0.040;2023-01-30T16:39:29;8.60;99.90
45837;DHT22;31548;51.420;-0.040;2023-01-30T16:41:58;8.60;99.90
45837;DHT22;31548;51.420;-0.040;2023-01-30T16:44:28;8.50;99.90
45837;DHT22;31548;51.420;-0.040;2023-01-30T16:47:26;8.50;99.90
45837;DHT22;31548;51.420;-0.040;2023-01-30T16:49:55;8.50;99.90
45837;DHT22;31548;51.420;-0.040;2023-01-30T16:52:33;8.40;99.90
45837;DHT22;31548;51.420;-0.040;2023-01-30T16:55:06;8.40;99.90
45837;DHT22;31548;51.420;-0.040;2023-01-30T16:57:41;8.30;99.90
45837;DHT22;31548;51.420;-0.040;2023-01-30T17:02:57;8.20;99.90
45837;DHT22;31548;51.420;-0.040;2023-01-30T17:05:28;8.20;99.90
45837;DHT22;31548;51.420;-0.040;2023-01-30T17:07:56;8.20;99.90
45837;DHT22;31548;51.420;-0.040;2023-01-30T17:12:55;8.00;99.90
45837;DHT22;31548;51.420;-0.040;2023-01-30T17:15:28;8.00;99.90
45837;DHT22;31548;51.420;-0.040;2023-01-30T17:17:55;8.00;99.90
45837;DHT22;31548;51.420;-0.040;2023-01-30T17:20:26;7.90;99.90
45837;DHT22;31548;51.420;-0.040;2023-01-30T17:22:55;7.90;99.90
45837;DHT22;31548;51.420;-0.040;2023-01-30T17:25:40;7.90;99.90
45837;DHT22;31548;51.420;-0.040;2023-01-30T17:28:14;7.80;99.90
45837;DHT22;31548;51.420;-0.040;2023-01-30T17:30:42;7.80;99.90
45837;DHT22;31548;51.420;-0.040;2023-01-30T17:33:09;7.80;99.90
45837;DHT22;31548;51.420;-0.040;2023-01-30T17:35:38;7.70;99.90
45837;DHT22;31548;51.420;-0.040;2023-01-30T17:38:06;7.70;99.90
45837;DHT22;31548;51.420;-0.040;2023-01-30T17:40:38;7.60;99.90
45837;DHT22;31548;51.420;-0.040;2023-01-30T17:43:05;7.60;99.90
45837;DHT22;31548;51.420;-0.040;2023-01-30T17:45:32;7.60;99.90
45837;DHT22;31548;51.420;-0.040;2023-01-30T17:48:01;7.50;99.90
45837;DHT22;31548;51.420;-0.040;2023-01-30T17:50:28;7.50;99.90
45837;DHT22;31548;51.420;-0.040;2023-01-30T17:52:55;7.50;99.90
45837;DHT22;31548;51.420;-0.040;2023-01-30T17:55:22;7.40;99.90
45837;DHT22;31548;51.420;-0.040;2023-01-30T17:57:50;7.40;99.90
45837;DHT22;31548;51.420;-0.040;2023-01-30T18:00:19;7.40;99.90
45837;DHT22;31548;51.420;-0.040;2023-01-30T18:02:48;7.30;99.90
45837;DHT22;31548;51.420;-0.040;2023-01-30T18:05:15;7.30;99.90
45837;DHT22;31548;51.420;-0.040;2023-01-30T18:07:42;7.30;99.90
45837;DHT22;31548;51.420;-0.040;2023-01-30T18:10:15;7.30;99.90
45837;DHT22;31548;51.420;-0.040;2023-01-30T18:12:43;7.20;99.90
45837;DHT22;31548;51.420;-0.040;2023-01-30T18:15:12;7.20;99.90
45837;DHT22;31548;51.420;-0.040;2023-01-30T18:17:43;7.10;99.90
45837;DHT22;31548;51.420;-0.040;2023-01-30T18:20:15;7.10;99.90
45837;DHT22;31548;51.420;-0.040;2023-01-30T18:22:44;7.00;99.90
45837;DHT22;31548;51.420;-0.040;2023-01-30T18:25:11;7.00;99.90
45837;DHT22;31548;51.420;-0.040;2023-01-30T18:27:41;7.00;99.90
45837;DHT22;31548;51.420;-0.040;2023-01-30T18:30:14;7.00;99.90
45837;DHT22;31548;51.420;-0.040;2023-01-30T18:32:46;7.00;99.90
45837;DHT22;31548;51.420;-0.040;2023-01-30T18:35:20;7.00;99.90
45837;DHT22;31548;51.420;-0.040;2023-01-30T18:37:48;6.90;99.90
45837;DHT22;31548;51.420;-0.040;2023-01-30T18:40:16;6.90;99.90
45837;DHT22;31548;51.420;-0.040;2023-01-30T18:42:45;6.90;99.90
45837;DHT22;31548;51.420;-0.040;2023-01-30T18:45:12;6.80;99.90
45837;DHT22;31548;51.420;-0.040;2023-01-30T18:47:40;6.80;99.90
45837;DHT22;31548;51.420;-0.040;2023-01-30T18:50:08;6.70;99.90
45837;DHT22;31548;51.420;-0.040;2023-01-30T18:52:35;6.70;99.90
45837;DHT22;31548;51.420;-0.040;2023-01-30T18:55:03;6.60;99.90
45837;DHT22;31548;51.420;-0.040;2023-01-30T18:57:30;6.50;99.90
45837;DHT22;31548;51.420;-0.040;2023-01-30T18:59:58;6.40;99.90
45837;DHT22;31548;51.420;-0.040;2023-01-30T19:02:25;6.40;99.90
45837;DHT22;31548;51.420;-0.040;2023-01-30T19:04:52;6.30;99.90
45837;DHT22;31548;51.420;-0.040;2023-01-30T19:07:19;6.20;99.90
45837;DHT22;31548;51.420;-0.040;2023-01-30T19:09:46;6.20;99.90